Brandy Nicole — WDH3897 — position and weather

sailwx.info

Track history (hours):
 
Tides and Currents Weather Stations Pressure Air Temp Water Temp Dewpoint Dewpoint Depression Visibility Wind Speed Wind Dir Waves Ship Positions

Brandy Nicole

Owner: Broussard Brothers, Inc., Abbeville, LA. More information available from US FCC via Universal Licensing System and Coast Guard Vessel Documentation Center.

Last reported at 2017-Sep-22 02:00 UTC. Time now 2017-Sep-22 17:23 UTC.
Position N 29°47' W 092°11'.

; draft 2.2 m.

Type: Towing. MMSI: 367612050.

Date/timePositionNaut miles runAvg speedWind from/ knotsBaromVisibWave heightAir tempDewpointWater temp
2017-Sep-22 02:00N 29°47' W 092°11'0 0.0
2017-Sep-22 01:31N 29°47' W 092°11'1 1.8
2017-Sep-22 01:01N 29°47' W 092°10'0 0.2
2017-Sep-22 00:31N 29°47' W 092°10'0 0.1
2017-Sep-22 00:01N 29°47' W 092°10'0 0.1
2017-Sep-21 23:31N 29°47' W 092°10'0 0.3
2017-Sep-21 23:01N 29°47' W 092°10'1 1.4
2017-Sep-21 22:31N 29°47' W 092°11'0 0.0
2017-Sep-21 22:01N 29°47' W 092°11'1 1.7
2017-Sep-21 21:31N 29°47' W 092°10'0 0.3
2017-Sep-21 21:00N 29°47' W 092°10'0 0.0
2017-Sep-21 20:31N 29°47' W 092°10'2 3.6
2017-Sep-21 20:01N 29°47' W 092°08'4 7.7
2017-Sep-21 19:27N 29°49' W 092°04'4 0.3
2017-Sep-21 05:41N 29°50' W 091°60'2 9.2
2017-Sep-21 05:27N 29°49' W 092°02'4 8.8
2017-Sep-21 05:00N 29°48' W 092°06'4 7.1
2017-Sep-21 04:31N 29°47' W 092°10'0 0.0
2017-Sep-21 04:01N 29°47' W 092°10'0 0.0
2017-Sep-21 03:31N 29°47' W 092°10'0 0.0
2017-Sep-21 03:00N 29°47' W 092°10'0 0.0
2017-Sep-21 02:31N 29°47' W 092°10'0 0.0
2017-Sep-21 02:00N 29°47' W 092°10'0 0.0
2017-Sep-21 01:31N 29°47' W 092°10'0 0.0
2017-Sep-21 01:01N 29°47' W 092°10'0 0.0
2017-Sep-21 00:31N 29°47' W 092°10'0 0.3
2017-Sep-21 00:01N 29°47' W 092°10'0 0.0
2017-Sep-20 23:30N 29°47' W 092°10'0 0.0
2017-Sep-20 23:01N 29°47' W 092°10'0 0.0
2017-Sep-20 22:31N 29°47' W 092°10'0 0.3
2017-Sep-20 22:01N 29°47' W 092°10'0 0.3
2017-Sep-20 21:30N 29°47' W 092°10'0 0.3
2017-Sep-20 21:01N 29°47' W 092°10'1 1.9
2017-Sep-20 20:31N 29°47' W 092°11'0 0.0
2017-Sep-20 20:01N 29°47' W 092°11'0 0.0
2017-Sep-20 19:31N 29°47' W 092°11'0 0.0
2017-Sep-20 19:01N 29°47' W 092°11'0 0.0
2017-Sep-20 18:31N 29°47' W 092°11'0 0.0
2017-Sep-20 18:01N 29°47' W 092°11'0 0.0
2017-Sep-20 17:30N 29°47' W 092°11'0 0.0
2017-Sep-20 17:00N 29°47' W 092°11'0 0.0
2017-Sep-20 16:30N 29°47' W 092°11'0 0.0
2017-Sep-20 16:01N 29°47' W 092°11'1 1.8
2017-Sep-20 15:31N 29°47' W 092°10'0 0.4
2017-Sep-20 15:01N 29°47' W 092°10'1 0.8
2017-Sep-20 14:01N 29°47' W 092°11'1 1.8
2017-Sep-20 13:31N 29°47' W 092°10'0 0.0
2017-Sep-20 13:01N 29°47' W 092°10'0 0.0
2017-Sep-20 12:31N 29°47' W 092°10'0 0.0
2017-Sep-20 12:00N 29°47' W 092°10'0 0.0
2017-Sep-20 11:30N 29°47' W 092°10'0 0.0
2017-Sep-20 11:01N 29°47' W 092°10'0 0.0
2017-Sep-20 10:31N 29°47' W 092°10'0 0.0
2017-Sep-20 10:01N 29°47' W 092°10'0 0.0
2017-Sep-20 09:31N 29°47' W 092°10'0 0.0
2017-Sep-20 09:01N 29°47' W 092°10'0 0.0
2017-Sep-20 08:31N 29°47' W 092°10'0 0.0
2017-Sep-20 08:01N 29°47' W 092°10'0 0.0
2017-Sep-20 07:31N 29°47' W 092°10'0 0.0
2017-Sep-20 07:00N 29°47' W 092°10'0 0.0
2017-Sep-20 06:31N 29°47' W 092°10'0 0.0
2017-Sep-20 06:01N 29°47' W 092°10'0 0.0
2017-Sep-20 05:30N 29°47' W 092°10'0 0.0
2017-Sep-20 05:01N 29°47' W 092°10'0 0.0
2017-Sep-20 04:30N 29°47' W 092°10'0 0.0
2017-Sep-20 04:01N 29°47' W 092°10'0 0.0
2017-Sep-20 03:31N 29°47' W 092°10'0 0.7
2017-Sep-20 03:01N 29°47' W 092°11'4 7.2
2017-Sep-20 02:31N 29°48' W 092°15'5 8.1
2017-Sep-20 01:55N 29°50' W 092°19'1 0.1
2017-Sep-19 15:09N 29°51' W 092°20'1 3.5
2017-Sep-19 14:57N 29°50' W 092°19'3 5.8
2017-Sep-19 14:31N 29°49' W 092°17'4 8.0
2017-Sep-19 14:00N 29°47' W 092°13'1 1.8
2017-Sep-19 13:31N 29°47' W 092°12'1 2.5
2017-Sep-19 13:01N 29°47' W 092°10'0 0.2
2017-Sep-19 12:31N 29°47' W 092°10'1 1.6
2017-Sep-19 12:01N 29°47' W 092°11'0 0.0
2017-Sep-19 11:31N 29°47' W 092°11'0 0.0
2017-Sep-19 11:01N 29°47' W 092°11'0 0.0
2017-Sep-19 10:31N 29°47' W 092°11'0 0.0
2017-Sep-19 10:01N 29°47' W 092°11'0 0.0
2017-Sep-19 09:31N 29°47' W 092°11'0 0.0
2017-Sep-19 09:01N 29°47' W 092°11'0 0.0
2017-Sep-19 08:31N 29°47' W 092°11'0 0.0
2017-Sep-19 08:01N 29°47' W 092°11'0 0.0
2017-Sep-19 07:31N 29°47' W 092°11'0 0.0
2017-Sep-19 07:00N 29°47' W 092°11'0 0.0
2017-Sep-19 06:31N 29°47' W 092°11'0 0.0
2017-Sep-19 06:01N 29°47' W 092°11'0 0.0
2017-Sep-19 05:30N 29°47' W 092°11'0 0.0
2017-Sep-19 05:01N 29°47' W 092°11'0 0.0
2017-Sep-19 04:31N 29°47' W 092°11'0 0.0
2017-Sep-19 04:01N 29°47' W 092°11'0 0.0
2017-Sep-19 03:31N 29°47' W 092°11'0 0.0
2017-Sep-19 03:01N 29°47' W 092°11'0 0.0
2017-Sep-19 02:31N 29°47' W 092°11'0 0.0
2017-Sep-19 02:01N 29°47' W 092°11'0 0.0
2017-Sep-19 01:31N 29°47' W 092°11'0 0.0
2017-Sep-19 01:00N 29°47' W 092°11'0 0.0
2017-Sep-19 00:31N 29°47' W 092°11'0 0.0
2017-Sep-19 00:01N 29°47' W 092°11'0 0.0
2017-Sep-18 23:31N 29°47' W 092°11'0 0.0
2017-Sep-18 23:01N 29°47' W 092°11'0 0.1
2017-Sep-18 22:31N 29°47' W 092°11'0 0.0
2017-Sep-18 22:01N 29°47' W 092°11'0 0.0
2017-Sep-18 21:31N 29°47' W 092°11'0 0.0
2017-Sep-18 21:01N 29°47' W 092°11'0 0.0
2017-Sep-18 20:31N 29°47' W 092°11'1 1.4
2017-Sep-18 20:01N 29°47' W 092°11'0 0.4
2017-Sep-18 19:31N 29°47' W 092°10'0 0.0
2017-Sep-18 19:01N 29°47' W 092°10'0 0.6
2017-Sep-18 18:30N 29°47' W 092°11'2 4.3
2017-Sep-18 18:01N 29°48' W 092°08'0 0.1
2017-Sep-18 17:31N 29°48' W 092°08'2 4.1
2017-Sep-18 17:01N 29°47' W 092°10'0 0.4
2017-Sep-18 16:31N 29°47' W 092°10'0 0.2
2017-Sep-18 16:01N 29°47' W 092°10'1 1.5
2017-Sep-18 15:31N 29°47' W 092°11'3 5.6
2017-Sep-18 15:01N 29°48' W 092°14'2 4.5
2017-Sep-18 14:31N 29°46' W 092°16'4 7.2
2017-Sep-18 14:00N 29°45' W 092°20'2 3.6
2017-Sep-18 13:31N 29°44' W 092°21'0 0.5
2017-Sep-18 13:01N 29°44' W 092°21'2 3.7
2017-Sep-18 12:31N 29°45' W 092°19'2 4.9
2017-Sep-18 12:00N 29°45' W 092°17'2 3.4
2017-Sep-18 11:31N 29°47' W 092°16'1 2.9
2017-Sep-18 11:00N 29°48' W 092°15'2 3.6
2017-Sep-18 10:30N 29°47' W 092°13'2 3.2
2017-Sep-18 10:01N 29°47' W 092°11'2 3.5
2017-Sep-18 09:31N 29°47' W 092°09'1 2.6
2017-Sep-18 09:01N 29°48' W 092°08'2 3.1
2017-Sep-18 08:31N 29°49' W 092°08'1 2.5
2017-Sep-18 07:58N 29°51' W 092°08'2 0.4
2017-Sep-18 01:39N 29°53' W 092°08'2 5.5
2017-Sep-18 01:21N 29°51' W 092°07'2 6.1
2017-Sep-18 01:01N 29°49' W 092°08'3 6.3
2017-Sep-18 00:31N 29°47' W 092°10'1 2.5
2017-Sep-18 00:01N 29°47' W 092°11'0 0.1
2017-Sep-17 23:31N 29°47' W 092°11'1 1.5
2017-Sep-17 23:01N 29°47' W 092°10'2 3.5
2017-Sep-17 22:31N 29°47' W 092°12'3 6.5
2017-Sep-17 22:01N 29°48' W 092°16'5 0.2
2017-Sep-16 17:31N 29°51' W 092°21'0 6.5
2017-Sep-16 17:31N 29°51' W 092°21'4 8.0
2017-Sep-16 17:01N 29°49' W 092°17'4 8.7
2017-Sep-16 16:31N 29°47' W 092°12'2 3.5
2017-Sep-16 16:01N 29°47' W 092°10'0 0.0
2017-Sep-16 15:31N 29°47' W 092°10'0 0.0
2017-Sep-16 15:01N 29°47' W 092°10'0 0.0
2017-Sep-16 14:31N 29°47' W 092°10'0 0.5
2017-Sep-16 14:01N 29°47' W 092°10'0 0.1
2017-Sep-16 13:30N 29°47' W 092°10'0 0.2
2017-Sep-16 13:01N 29°47' W 092°10'0 0.3
2017-Sep-16 12:31N 29°47' W 092°10'0 0.2
2017-Sep-16 12:01N 29°47' W 092°10'0 0.2
2017-Sep-16 11:30N 29°47' W 092°10'0 0.0
2017-Sep-16 11:01N 29°47' W 092°10'0 0.0
2017-Sep-16 10:31N 29°47' W 092°10'0 0.0
2017-Sep-16 10:01N 29°47' W 092°10'0 0.0
2017-Sep-16 09:31N 29°47' W 092°10'0 0.0
2017-Sep-16 09:00N 29°47' W 092°10'0 0.0
2017-Sep-16 08:31N 29°47' W 092°10'0 0.0
2017-Sep-16 08:01N 29°47' W 092°10'0 0.0
2017-Sep-16 07:31N 29°47' W 092°10'0 0.0
2017-Sep-16 07:00N 29°47' W 092°10'0 0.0
2017-Sep-16 06:31N 29°47' W 092°10'0 0.0
2017-Sep-16 06:01N 29°47' W 092°10'1 2.8
2017-Sep-16 05:30N 29°47' W 092°09'3 5.8
2017-Sep-16 05:01N 29°48' W 092°06'5 0.4
2017-Sep-15 17:30N 29°47' W 092°11'0 0.0
2017-Sep-15 03:40N 29°47' W 092°11'0 0.0
2017-Sep-15 03:30N 29°47' W 092°11'0 0.0
2017-Sep-15 03:01N 29°47' W 092°11'0 0.0
2017-Sep-15 02:31N 29°47' W 092°11'0 0.0
2017-Sep-15 02:01N 29°47' W 092°11'0 0.0
2017-Sep-15 01:31N 29°47' W 092°11'0 0.0
2017-Sep-15 01:01N 29°47' W 092°11'0 0.0
2017-Sep-15 00:31N 29°47' W 092°11'0 0.3
2017-Sep-15 00:00N 29°47' W 092°11'0 0.2
2017-Sep-14 23:30N 29°47' W 092°11'0 0.0
2017-Sep-14 23:01N 29°47' W 092°11'0 0.0
2017-Sep-14 22:30N 29°47' W 092°11'3 5.6
2017-Sep-14 22:01N 29°45' W 092°13'4 8.3
2017-Sep-14 21:30N 29°41' W 092°15'5 0.5
2017-Sep-14 10:36N 29°36' W 092°17'1 9.1
2017-Sep-14 10:30N 29°37' W 092°17'5 9.5
2017-Sep-14 10:01N 29°41' W 092°15'5 9.2
2017-Sep-14 09:30N 29°45' W 092°12'2 4.1
2017-Sep-14 09:00N 29°47' W 092°11'1 1.2
2017-Sep-14 08:31N 29°47' W 092°11'0 0.0
2017-Sep-14 08:01N 29°47' W 092°11'0 0.0
2017-Sep-14 07:30N 29°47' W 092°11'0 0.0
2017-Sep-14 07:01N 29°47' W 092°11'0 0.0
2017-Sep-14 06:31N 29°47' W 092°11'0 0.0
2017-Sep-14 06:01N 29°47' W 092°11'0 0.0
2017-Sep-14 05:31N 29°47' W 092°11'0 0.0
2017-Sep-14 05:00N 29°47' W 092°11'0 0.0
2017-Sep-14 04:31N 29°47' W 092°11'0 0.0
2017-Sep-14 04:01N 29°47' W 092°11'0 0.0
2017-Sep-14 03:31N 29°47' W 092°11'0 0.0
2017-Sep-14 03:01N 29°47' W 092°11'0 0.0
2017-Sep-14 02:31N 29°47' W 092°11'0 0.0
2017-Sep-14 02:00N 29°47' W 092°11'0 0.0
2017-Sep-14 01:31N 29°47' W 092°11'0 0.0
2017-Sep-14 01:01N 29°47' W 092°11'0 0.0
2017-Sep-14 00:31N 29°47' W 092°11'0 0.0
2017-Sep-14 00:01N 29°47' W 092°11'0 0.0
2017-Sep-13 23:31N 29°47' W 092°11'1 1.8
2017-Sep-13 23:01N 29°47' W 092°10'1 1.6
2017-Sep-13 22:30N 29°47' W 092°11'0 0.0
2017-Sep-13 22:01N 29°47' W 092°11'0 0.1
2017-Sep-13 21:30N 29°47' W 092°11'1 1.6
2017-Sep-13 21:00N 29°47' W 092°10'1 1.6
2017-Sep-13 20:31N 29°47' W 092°11'0 0.0
2017-Sep-13 20:01N 29°47' W 092°11'0 0.0
2017-Sep-13 19:31N 29°47' W 092°11'0 0.0
2017-Sep-13 19:01N 29°47' W 092°11'1 1.7
2017-Sep-13 18:31N 29°47' W 092°10'1 1.7
2017-Sep-13 18:01N 29°47' W 092°11'0 0.0
2017-Sep-13 17:31N 29°47' W 092°11'0 0.3
2017-Sep-13 17:01N 29°47' W 092°11'0 0.4
2017-Sep-13 16:31N 29°47' W 092°11'0 0.0
2017-Sep-13 16:00N 29°47' W 092°11'0 0.2
2017-Sep-13 15:31N 29°47' W 092°11'0 0.0
2017-Sep-13 15:00N 29°47' W 092°11'0 0.0
2017-Sep-13 14:31N 29°47' W 092°11'0 0.0
2017-Sep-13 14:01N 29°47' W 092°11'0 0.0
2017-Sep-13 13:31N 29°47' W 092°11'0 0.0
2017-Sep-13 13:01N 29°47' W 092°11'0 0.0
2017-Sep-13 12:31N 29°47' W 092°11'0 0.0
2017-Sep-13 12:00N 29°47' W 092°11'0 0.0
2017-Sep-13 11:31N 29°47' W 092°11'0 0.0
2017-Sep-13 11:01N 29°47' W 092°11'0 0.0
2017-Sep-13 10:30N 29°47' W 092°11'0 0.0
2017-Sep-13 10:01N 29°47' W 092°11'0 0.0
2017-Sep-13 09:30N 29°47' W 092°11'0 0.0
2017-Sep-13 09:01N 29°47' W 092°11'0 0.0
2017-Sep-13 08:31N 29°47' W 092°11'0 0.0
2017-Sep-13 08:01N 29°47' W 092°11'0 0.0
2017-Sep-13 07:31N 29°47' W 092°11'0 0.0
2017-Sep-13 07:01N 29°47' W 092°11'0 0.0
2017-Sep-13 06:30N 29°47' W 092°11'0 0.0
2017-Sep-13 06:01N 29°47' W 092°11'0 0.0
2017-Sep-13 05:31N 29°47' W 092°11'0 0.0
2017-Sep-13 05:01N 29°47' W 092°11'0 0.0
2017-Sep-13 04:31N 29°47' W 092°11'0 0.0
2017-Sep-13 04:01N 29°47' W 092°11'0 0.0
2017-Sep-13 03:31N 29°47' W 092°11'0 0.0
2017-Sep-13 03:01N 29°47' W 092°11'0 0.0
2017-Sep-13 02:31N 29°47' W 092°11'0 0.0
2017-Sep-13 02:01N 29°47' W 092°11'0 0.0
2017-Sep-13 01:31N 29°47' W 092°11'0 0.0
2017-Sep-13 01:01N 29°47' W 092°11'0 0.0
2017-Sep-13 00:31N 29°47' W 092°11'0 0.0
2017-Sep-13 00:01N 29°47' W 092°11'0 0.0
2017-Sep-12 23:31N 29°47' W 092°11'0 0.0
2017-Sep-12 23:01N 29°47' W 092°11'0 0.0
2017-Sep-12 22:31N 29°47' W 092°11'0 0.0
2017-Sep-12 22:01N 29°47' W 092°11'0 0.0
2017-Sep-12 21:31N 29°47' W 092°11'0 0.0
2017-Sep-12 21:01N 29°47' W 092°11'0 0.0
2017-Sep-12 20:30N 29°47' W 092°11'0 0.0
2017-Sep-12 20:00N 29°47' W 092°11'0 0.0
2017-Sep-12 19:31N 29°47' W 092°11'0 0.0
2017-Sep-12 19:01N 29°47' W 092°11'0 0.0
2017-Sep-12 18:31N 29°47' W 092°11'0 0.0
2017-Sep-12 18:01N 29°47' W 092°11'0 0.0
2017-Sep-12 17:31N 29°47' W 092°11'0 0.0
2017-Sep-12 17:01N 29°47' W 092°11'0 0.0
2017-Sep-12 16:31N 29°47' W 092°11'0 0.0
2017-Sep-12 16:01N 29°47' W 092°11'0 0.0
2017-Sep-12 15:31N 29°47' W 092°11'0 0.0
2017-Sep-12 15:01N 29°47' W 092°11'0 0.0
2017-Sep-12 14:31N 29°47' W 092°11'0 0.0
2017-Sep-12 14:01N 29°47' W 092°11'0 0.2
2017-Sep-12 13:29N 29°47' W 092°11'0 0.1
2017-Sep-12 12:59N 29°47' W 092°11'0 0.0
2017-Sep-12 12:29N 29°47' W 092°11'0 0.0
2017-Sep-12 11:41N 29°47' W 092°11'0 0.0
2017-Sep-12 11:30N 29°47' W 092°11'0 0.0
2017-Sep-12 10:59N 29°47' W 092°11'0 0.0
2017-Sep-12 10:30N 29°47' W 092°11'0 0.0
2017-Sep-12 09:57N 29°47' W 092°11'0 0.0
2017-Sep-12 09:15N 29°47' W 092°11'0 0.0
2017-Sep-12 08:59N 29°47' W 092°11'0 0.0
2017-Sep-12 08:29N 29°47' W 092°11'0 0.0
2017-Sep-12 08:00N 29°47' W 092°11'0 0.0
2017-Sep-12 07:30N 29°47' W 092°11'0 0.0
2017-Sep-12 06:51N 29°47' W 092°11'0 0.0
2017-Sep-12 06:30N 29°47' W 092°11'0 0.0
2017-Sep-12 06:00N 29°47' W 092°11'0 0.0
2017-Sep-12 05:29N 29°47' W 092°11'0 0.0
2017-Sep-12 05:01N 29°47' W 092°11'0 0.0
2017-Sep-12 04:30N 29°47' W 092°11'0 0.0
2017-Sep-12 04:01N 29°47' W 092°11'0 0.0
2017-Sep-12 03:31N 29°47' W 092°11'0 0.0
2017-Sep-12 03:01N 29°47' W 092°11'0 0.0
2017-Sep-12 02:31N 29°47' W 092°11'0 0.0
2017-Sep-12 02:01N 29°47' W 092°11'  
Track history (hours):
 
Tides and Currents Weather Stations Pressure Air Temp Water Temp Dewpoint Dewpoint Depression Visibility Wind Speed Wind Dir Waves Ship Positions

Brandy Nicole

Owner: Broussard Brothers, Inc., Abbeville, LA. More information available from US FCC via Universal Licensing System and Coast Guard Vessel Documentation Center.

Last reported at 2017-Sep-22 02:00 UTC. Time now 2017-Sep-22 17:23 UTC.
Position N 29°47' W 092°11'.

; draft 2.2 m.

Type: Towing. MMSI: 367612050.

Date/timePositionNaut miles runAvg speedWind from/ knotsBaromVisibWave heightAir tempDewpointWater temp
2017-Sep-22 02:00N 29°47' W 092°11'0 0.0
2017-Sep-22 01:31N 29°47' W 092°11'1 1.8
2017-Sep-22 01:01N 29°47' W 092°10'0 0.2
2017-Sep-22 00:31N 29°47' W 092°10'0 0.1
2017-Sep-22 00:01N 29°47' W 092°10'0 0.1
2017-Sep-21 23:31N 29°47' W 092°10'0 0.3
2017-Sep-21 23:01N 29°47' W 092°10'1 1.4
2017-Sep-21 22:31N 29°47' W 092°11'0 0.0
2017-Sep-21 22:01N 29°47' W 092°11'1 1.7
2017-Sep-21 21:31N 29°47' W 092°10'0 0.3
2017-Sep-21 21:00N 29°47' W 092°10'0 0.0
2017-Sep-21 20:31N 29°47' W 092°10'2 3.6
2017-Sep-21 20:01N 29°47' W 092°08'4 7.7
2017-Sep-21 19:27N 29°49' W 092°04'4 0.3
2017-Sep-21 05:41N 29°50' W 091°60'2 9.2
2017-Sep-21 05:27N 29°49' W 092°02'4 8.8
2017-Sep-21 05:00N 29°48' W 092°06'4 7.1
2017-Sep-21 04:31N 29°47' W 092°10'0 0.0
2017-Sep-21 04:01N 29°47' W 092°10'0 0.0
2017-Sep-21 03:31N 29°47' W 092°10'0 0.0
2017-Sep-21 03:00N 29°47' W 092°10'0 0.0
2017-Sep-21 02:31N 29°47' W 092°10'0 0.0
2017-Sep-21 02:00N 29°47' W 092°10'0 0.0
2017-Sep-21 01:31N 29°47' W 092°10'0 0.0
2017-Sep-21 01:01N 29°47' W 092°10'0 0.0
2017-Sep-21 00:31N 29°47' W 092°10'0 0.3
2017-Sep-21 00:01N 29°47' W 092°10'0 0.0
2017-Sep-20 23:30N 29°47' W 092°10'0 0.0
2017-Sep-20 23:01N 29°47' W 092°10'0 0.0
2017-Sep-20 22:31N 29°47' W 092°10'0 0.3
2017-Sep-20 22:01N 29°47' W 092°10'0 0.3
2017-Sep-20 21:30N 29°47' W 092°10'0 0.3
2017-Sep-20 21:01N 29°47' W 092°10'1 1.9
2017-Sep-20 20:31N 29°47' W 092°11'0 0.0
2017-Sep-20 20:01N 29°47' W 092°11'0 0.0
2017-Sep-20 19:31N 29°47' W 092°11'0 0.0
2017-Sep-20 19:01N 29°47' W 092°11'0 0.0
2017-Sep-20 18:31N 29°47' W 092°11'0 0.0
2017-Sep-20 18:01N 29°47' W 092°11'0 0.0
2017-Sep-20 17:30N 29°47' W 092°11'0 0.0
2017-Sep-20 17:00N 29°47' W 092°11'0 0.0
2017-Sep-20 16:30N 29°47' W 092°11'0 0.0
2017-Sep-20 16:01N 29°47' W 092°11'1 1.8
2017-Sep-20 15:31N 29°47' W 092°10'0 0.4
2017-Sep-20 15:01N 29°47' W 092°10'1 0.8
2017-Sep-20 14:01N 29°47' W 092°11'1 1.8
2017-Sep-20 13:31N 29°47' W 092°10'0 0.0
2017-Sep-20 13:01N 29°47' W 092°10'0 0.0
2017-Sep-20 12:31N 29°47' W 092°10'0 0.0
2017-Sep-20 12:00N 29°47' W 092°10'0 0.0
2017-Sep-20 11:30N 29°47' W 092°10'0 0.0
2017-Sep-20 11:01N 29°47' W 092°10'0 0.0
2017-Sep-20 10:31N 29°47' W 092°10'0 0.0
2017-Sep-20 10:01N 29°47' W 092°10'0 0.0
2017-Sep-20 09:31N 29°47' W 092°10'0 0.0
2017-Sep-20 09:01N 29°47' W 092°10'0 0.0
2017-Sep-20 08:31N 29°47' W 092°10'0 0.0
2017-Sep-20 08:01N 29°47' W 092°10'0 0.0
2017-Sep-20 07:31N 29°47' W 092°10'0 0.0
2017-Sep-20 07:00N 29°47' W 092°10'0 0.0
2017-Sep-20 06:31N 29°47' W 092°10'0 0.0
2017-Sep-20 06:01N 29°47' W 092°10'0 0.0
2017-Sep-20 05:30N 29°47' W 092°10'0 0.0
2017-Sep-20 05:01N 29°47' W 092°10'0 0.0
2017-Sep-20 04:30N 29°47' W 092°10'0 0.0
2017-Sep-20 04:01N 29°47' W 092°10'0 0.0
2017-Sep-20 03:31N 29°47' W 092°10'0 0.7
2017-Sep-20 03:01N 29°47' W 092°11'4 7.2
2017-Sep-20 02:31N 29°48' W 092°15'5 8.1
2017-Sep-20 01:55N 29°50' W 092°19'1 0.1
2017-Sep-19 15:09N 29°51' W 092°20'1 3.5
2017-Sep-19 14:57N 29°50' W 092°19'3 5.8
2017-Sep-19 14:31N 29°49' W 092°17'4 8.0
2017-Sep-19 14:00N 29°47' W 092°13'1 1.8
2017-Sep-19 13:31N 29°47' W 092°12'1 2.5
2017-Sep-19 13:01N 29°47' W 092°10'0 0.2
2017-Sep-19 12:31N 29°47' W 092°10'1 1.6
2017-Sep-19 12:01N 29°47' W 092°11'0 0.0
2017-Sep-19 11:31N 29°47' W 092°11'0 0.0
2017-Sep-19 11:01N 29°47' W 092°11'0 0.0
2017-Sep-19 10:31N 29°47' W 092°11'0 0.0
2017-Sep-19 10:01N 29°47' W 092°11'0 0.0
2017-Sep-19 09:31N 29°47' W 092°11'0 0.0
2017-Sep-19 09:01N 29°47' W 092°11'0 0.0
2017-Sep-19 08:31N 29°47' W 092°11'0 0.0
2017-Sep-19 08:01N 29°47' W 092°11'0 0.0
2017-Sep-19 07:31N 29°47' W 092°11'0 0.0
2017-Sep-19 07:00N 29°47' W 092°11'0 0.0
2017-Sep-19 06:31N 29°47' W 092°11'0 0.0
2017-Sep-19 06:01N 29°47' W 092°11'0 0.0
2017-Sep-19 05:30N 29°47' W 092°11'0 0.0
2017-Sep-19 05:01N 29°47' W 092°11'0 0.0
2017-Sep-19 04:31N 29°47' W 092°11'0 0.0
2017-Sep-19 04:01N 29°47' W 092°11'0 0.0
2017-Sep-19 03:31N 29°47' W 092°11'0 0.0
2017-Sep-19 03:01N 29°47' W 092°11'0 0.0
2017-Sep-19 02:31N 29°47' W 092°11'0 0.0
2017-Sep-19 02:01N 29°47' W 092°11'0 0.0
2017-Sep-19 01:31N 29°47' W 092°11'0 0.0
2017-Sep-19 01:00N 29°47' W 092°11'0 0.0
2017-Sep-19 00:31N 29°47' W 092°11'0 0.0
2017-Sep-19 00:01N 29°47' W 092°11'0 0.0
2017-Sep-18 23:31N 29°47' W 092°11'0 0.0
2017-Sep-18 23:01N 29°47' W 092°11'0 0.1
2017-Sep-18 22:31N 29°47' W 092°11'0 0.0
2017-Sep-18 22:01N 29°47' W 092°11'0 0.0
2017-Sep-18 21:31N 29°47' W 092°11'0 0.0
2017-Sep-18 21:01N 29°47' W 092°11'0 0.0
2017-Sep-18 20:31N 29°47' W 092°11'1 1.4
2017-Sep-18 20:01N 29°47' W 092°11'0 0.4
2017-Sep-18 19:31N 29°47' W 092°10'0 0.0
2017-Sep-18 19:01N 29°47' W 092°10'0 0.6
2017-Sep-18 18:30N 29°47' W 092°11'2 4.3
2017-Sep-18 18:01N 29°48' W 092°08'0 0.1
2017-Sep-18 17:31N 29°48' W 092°08'2 4.1
2017-Sep-18 17:01N 29°47' W 092°10'0 0.4
2017-Sep-18 16:31N 29°47' W 092°10'0 0.2
2017-Sep-18 16:01N 29°47' W 092°10'1 1.5
2017-Sep-18 15:31N 29°47' W 092°11'3 5.6
2017-Sep-18 15:01N 29°48' W 092°14'2 4.5
2017-Sep-18 14:31N 29°46' W 092°16'4 7.2
2017-Sep-18 14:00N 29°45' W 092°20'2 3.6
2017-Sep-18 13:31N 29°44' W 092°21'0 0.5
2017-Sep-18 13:01N 29°44' W 092°21'2 3.7
2017-Sep-18 12:31N 29°45' W 092°19'2 4.9
2017-Sep-18 12:00N 29°45' W 092°17'2 3.4
2017-Sep-18 11:31N 29°47' W 092°16'1 2.9
2017-Sep-18 11:00N 29°48' W 092°15'2 3.6
2017-Sep-18 10:30N 29°47' W 092°13'2 3.2
2017-Sep-18 10:01N 29°47' W 092°11'2 3.5
2017-Sep-18 09:31N 29°47' W 092°09'1 2.6
2017-Sep-18 09:01N 29°48' W 092°08'2 3.1
2017-Sep-18 08:31N 29°49' W 092°08'1 2.5
2017-Sep-18 07:58N 29°51' W 092°08'2 0.4
2017-Sep-18 01:39N 29°53' W 092°08'2 5.5
2017-Sep-18 01:21N 29°51' W 092°07'2 6.1
2017-Sep-18 01:01N 29°49' W 092°08'3 6.3
2017-Sep-18 00:31N 29°47' W 092°10'1 2.5
2017-Sep-18 00:01N 29°47' W 092°11'0 0.1
2017-Sep-17 23:31N 29°47' W 092°11'1 1.5
2017-Sep-17 23:01N 29°47' W 092°10'2 3.5
2017-Sep-17 22:31N 29°47' W 092°12'3 6.5
2017-Sep-17 22:01N 29°48' W 092°16'5 0.2
2017-Sep-16 17:31N 29°51' W 092°21'0 6.5
2017-Sep-16 17:31N 29°51' W 092°21'4 8.0
2017-Sep-16 17:01N 29°49' W 092°17'4 8.7
2017-Sep-16 16:31N 29°47' W 092°12'2 3.5
2017-Sep-16 16:01N 29°47' W 092°10'0 0.0
2017-Sep-16 15:31N 29°47' W 092°10'0 0.0
2017-Sep-16 15:01N 29°47' W 092°10'0 0.0
2017-Sep-16 14:31N 29°47' W 092°10'0 0.5
2017-Sep-16 14:01N 29°47' W 092°10'0 0.1
2017-Sep-16 13:30N 29°47' W 092°10'0 0.2
2017-Sep-16 13:01N 29°47' W 092°10'0 0.3
2017-Sep-16 12:31N 29°47' W 092°10'0 0.2
2017-Sep-16 12:01N 29°47' W 092°10'0 0.2
2017-Sep-16 11:30N 29°47' W 092°10'0 0.0
2017-Sep-16 11:01N 29°47' W 092°10'0 0.0
2017-Sep-16 10:31N 29°47' W 092°10'0 0.0
2017-Sep-16 10:01N 29°47' W 092°10'0 0.0
2017-Sep-16 09:31N 29°47' W 092°10'0 0.0
2017-Sep-16 09:00N 29°47' W 092°10'0 0.0
2017-Sep-16 08:31N 29°47' W 092°10'0 0.0
2017-Sep-16 08:01N 29°47' W 092°10'0 0.0
2017-Sep-16 07:31N 29°47' W 092°10'0 0.0
2017-Sep-16 07:00N 29°47' W 092°10'0 0.0
2017-Sep-16 06:31N 29°47' W 092°10'0 0.0
2017-Sep-16 06:01N 29°47' W 092°10'1 2.8
2017-Sep-16 05:30N 29°47' W 092°09'3 5.8
2017-Sep-16 05:01N 29°48' W 092°06'5 0.4
2017-Sep-15 17:30N 29°47' W 092°11'0 0.0
2017-Sep-15 03:40N 29°47' W 092°11'0 0.0
2017-Sep-15 03:30N 29°47' W 092°11'0 0.0
2017-Sep-15 03:01N 29°47' W 092°11'0 0.0
2017-Sep-15 02:31N 29°47' W 092°11'0 0.0
2017-Sep-15 02:01N 29°47' W 092°11'0 0.0
2017-Sep-15 01:31N 29°47' W 092°11'0 0.0
2017-Sep-15 01:01N 29°47' W 092°11'0 0.0
2017-Sep-15 00:31N 29°47' W 092°11'0 0.3
2017-Sep-15 00:00N 29°47' W 092°11'0 0.2
2017-Sep-14 23:30N 29°47' W 092°11'0 0.0
2017-Sep-14 23:01N 29°47' W 092°11'0 0.0
2017-Sep-14 22:30N 29°47' W 092°11'3 5.6
2017-Sep-14 22:01N 29°45' W 092°13'4 8.3
2017-Sep-14 21:30N 29°41' W 092°15'5 0.5
2017-Sep-14 10:36N 29°36' W 092°17'1 9.1
2017-Sep-14 10:30N 29°37' W 092°17'5 9.5
2017-Sep-14 10:01N 29°41' W 092°15'5 9.2
2017-Sep-14 09:30N 29°45' W 092°12'2 4.1
2017-Sep-14 09:00N 29°47' W 092°11'1 1.2
2017-Sep-14 08:31N 29°47' W 092°11'0 0.0
2017-Sep-14 08:01N 29°47' W 092°11'0 0.0
2017-Sep-14 07:30N 29°47' W 092°11'0 0.0
2017-Sep-14 07:01N 29°47' W 092°11'0 0.0
2017-Sep-14 06:31N 29°47' W 092°11'0 0.0
2017-Sep-14 06:01N 29°47' W 092°11'0 0.0
2017-Sep-14 05:31N 29°47' W 092°11'0 0.0
2017-Sep-14 05:00N 29°47' W 092°11'0 0.0
2017-Sep-14 04:31N 29°47' W 092°11'0 0.0
2017-Sep-14 04:01N 29°47' W 092°11'0 0.0
2017-Sep-14 03:31N 29°47' W 092°11'0 0.0
2017-Sep-14 03:01N 29°47' W 092°11'0 0.0
2017-Sep-14 02:31N 29°47' W 092°11'0 0.0
2017-Sep-14 02:00N 29°47' W 092°11'0 0.0
2017-Sep-14 01:31N 29°47' W 092°11'0 0.0
2017-Sep-14 01:01N 29°47' W 092°11'0 0.0
2017-Sep-14 00:31N 29°47' W 092°11'0 0.0
2017-Sep-14 00:01N 29°47' W 092°11'0 0.0
2017-Sep-13 23:31N 29°47' W 092°11'1 1.8
2017-Sep-13 23:01N 29°47' W 092°10'1 1.6
2017-Sep-13 22:30N 29°47' W 092°11'0 0.0
2017-Sep-13 22:01N 29°47' W 092°11'0 0.1
2017-Sep-13 21:30N 29°47' W 092°11'1 1.6
2017-Sep-13 21:00N 29°47' W 092°10'1 1.6
2017-Sep-13 20:31N 29°47' W 092°11'0 0.0
2017-Sep-13 20:01N 29°47' W 092°11'0 0.0
2017-Sep-13 19:31N 29°47' W 092°11'0 0.0
2017-Sep-13 19:01N 29°47' W 092°11'1 1.7
2017-Sep-13 18:31N 29°47' W 092°10'1 1.7
2017-Sep-13 18:01N 29°47' W 092°11'0 0.0
2017-Sep-13 17:31N 29°47' W 092°11'0 0.3
2017-Sep-13 17:01N 29°47' W 092°11'0 0.4
2017-Sep-13 16:31N 29°47' W 092°11'0 0.0
2017-Sep-13 16:00N 29°47' W 092°11'0 0.2
2017-Sep-13 15:31N 29°47' W 092°11'0 0.0
2017-Sep-13 15:00N 29°47' W 092°11'0 0.0
2017-Sep-13 14:31N 29°47' W 092°11'0 0.0
2017-Sep-13 14:01N 29°47' W 092°11'0 0.0
2017-Sep-13 13:31N 29°47' W 092°11'0 0.0
2017-Sep-13 13:01N 29°47' W 092°11'0 0.0
2017-Sep-13 12:31N 29°47' W 092°11'0 0.0
2017-Sep-13 12:00N 29°47' W 092°11'0 0.0
2017-Sep-13 11:31N 29°47' W 092°11'0 0.0
2017-Sep-13 11:01N 29°47' W 092°11'0 0.0
2017-Sep-13 10:30N 29°47' W 092°11'0 0.0
2017-Sep-13 10:01N 29°47' W 092°11'0 0.0
2017-Sep-13 09:30N 29°47' W 092°11'0 0.0
2017-Sep-13 09:01N 29°47' W 092°11'0 0.0
2017-Sep-13 08:31N 29°47' W 092°11'0 0.0
2017-Sep-13 08:01N 29°47' W 092°11'0 0.0
2017-Sep-13 07:31N 29°47' W 092°11'0 0.0
2017-Sep-13 07:01N 29°47' W 092°11'0 0.0
2017-Sep-13 06:30N 29°47' W 092°11'0 0.0
2017-Sep-13 06:01N 29°47' W 092°11'0 0.0
2017-Sep-13 05:31N 29°47' W 092°11'0 0.0
2017-Sep-13 05:01N 29°47' W 092°11'0 0.0
2017-Sep-13 04:31N 29°47' W 092°11'0 0.0
2017-Sep-13 04:01N 29°47' W 092°11'0 0.0
2017-Sep-13 03:31N 29°47' W 092°11'0 0.0
2017-Sep-13 03:01N 29°47' W 092°11'0 0.0
2017-Sep-13 02:31N 29°47' W 092°11'0 0.0
2017-Sep-13 02:01N 29°47' W 092°11'0 0.0
2017-Sep-13 01:31N 29°47' W 092°11'0 0.0
2017-Sep-13 01:01N 29°47' W 092°11'0 0.0
2017-Sep-13 00:31N 29°47' W 092°11'0 0.0
2017-Sep-13 00:01N 29°47' W 092°11'0 0.0
2017-Sep-12 23:31N 29°47' W 092°11'0 0.0
2017-Sep-12 23:01N 29°47' W 092°11'0 0.0
2017-Sep-12 22:31N 29°47' W 092°11'0 0.0
2017-Sep-12 22:01N 29°47' W 092°11'0 0.0
2017-Sep-12 21:31N 29°47' W 092°11'0 0.0
2017-Sep-12 21:01N 29°47' W 092°11'0 0.0
2017-Sep-12 20:30N 29°47' W 092°11'0 0.0
2017-Sep-12 20:00N 29°47' W 092°11'0 0.0
2017-Sep-12 19:31N 29°47' W 092°11'0 0.0
2017-Sep-12 19:01N 29°47' W 092°11'0 0.0
2017-Sep-12 18:31N 29°47' W 092°11'0 0.0
2017-Sep-12 18:01N 29°47' W 092°11'0 0.0
2017-Sep-12 17:31N 29°47' W 092°11'0 0.0
2017-Sep-12 17:01N 29°47' W 092°11'0 0.0
2017-Sep-12 16:31N 29°47' W 092°11'0 0.0
2017-Sep-12 16:01N 29°47' W 092°11'0 0.0
2017-Sep-12 15:31N 29°47' W 092°11'0 0.0
2017-Sep-12 15:01N 29°47' W 092°11'0 0.0
2017-Sep-12 14:31N 29°47' W 092°11'0 0.0
2017-Sep-12 14:01N 29°47' W 092°11'0 0.2
2017-Sep-12 13:29N 29°47' W 092°11'0 0.1
2017-Sep-12 12:59N 29°47' W 092°11'0 0.0
2017-Sep-12 12:29N 29°47' W 092°11'0 0.0
2017-Sep-12 11:41N 29°47' W 092°11'0 0.0
2017-Sep-12 11:30N 29°47' W 092°11'0 0.0
2017-Sep-12 10:59N 29°47' W 092°11'0 0.0
2017-Sep-12 10:30N 29°47' W 092°11'0 0.0
2017-Sep-12 09:57N 29°47' W 092°11'0 0.0
2017-Sep-12 09:15N 29°47' W 092°11'0 0.0
2017-Sep-12 08:59N 29°47' W 092°11'0 0.0
2017-Sep-12 08:29N 29°47' W 092°11'0 0.0
2017-Sep-12 08:00N 29°47' W 092°11'0 0.0
2017-Sep-12 07:30N 29°47' W 092°11'0 0.0
2017-Sep-12 06:51N 29°47' W 092°11'0 0.0
2017-Sep-12 06:30N 29°47' W 092°11'0 0.0
2017-Sep-12 06:00N 29°47' W 092°11'0 0.0
2017-Sep-12 05:29N 29°47' W 092°11'0 0.0
2017-Sep-12 05:01N 29°47' W 092°11'0 0.0
2017-Sep-12 04:30N 29°47' W 092°11'0 0.0
2017-Sep-12 04:01N 29°47' W 092°11'0 0.0
2017-Sep-12 03:31N 29°47' W 092°11'0 0.0
2017-Sep-12 03:01N 29°47' W 092°11'0 0.0
2017-Sep-12 02:31N 29°47' W 092°11'0 0.0
2017-Sep-12 02:01N 29°47' W 092°11'  

Dump ship's entire track history